createdAt,value
2022-11-24T00:00:51.591Z,4.30
2022-11-24T00:01:51.652Z,3.90
2022-11-24T00:02:51.799Z,4.20
2022-11-24T00:03:51.574Z,4.10
2022-11-24T00:04:51.550Z,3.80
2022-11-24T00:05:51.569Z,3.60
2022-11-24T00:06:51.517Z,4.50
2022-11-24T00:07:51.549Z,4.80
2022-11-24T00:08:51.502Z,5.20
2022-11-24T00:09:51.516Z,4.70
2022-11-24T00:10:51.467Z,4.40
2022-11-24T00:11:51.490Z,4.40
2022-11-24T00:12:51.468Z,4.10
2022-11-24T00:13:51.442Z,4.80
2022-11-24T00:14:51.433Z,4.50
2022-11-24T00:15:51.410Z,4.40
2022-11-24T00:16:51.414Z,4.80
2022-11-24T00:17:51.412Z,4.90
2022-11-24T00:18:51.377Z,4.40
2022-11-24T00:19:51.354Z,5.00
2022-11-24T00:20:51.345Z,4.90
2022-11-24T00:21:51.329Z,4.90
2022-11-24T00:22:51.341Z,4.60
2022-11-24T00:23:51.298Z,5.10
2022-11-24T00:24:51.374Z,4.90
2022-11-24T00:25:51.275Z,4.60
2022-11-24T00:26:51.301Z,6.40
2022-11-24T00:27:51.275Z,4.60
2022-11-24T00:28:51.231Z,5.20
2022-11-24T00:29:51.235Z,5.20
2022-11-24T00:30:51.263Z,6.50
2022-11-24T00:31:51.244Z,5.10
2022-11-24T00:32:51.220Z,5.10
2022-11-24T00:33:51.172Z,6.10
2022-11-24T00:34:51.163Z,6.70
2022-11-24T00:35:51.140Z,5.20
2022-11-24T00:36:51.154Z,5.20
2022-11-24T00:37:51.131Z,5.20
2022-11-24T00:38:51.108Z,5.90
2022-11-24T00:39:51.097Z,9.60
2022-11-24T00:40:51.088Z,7.60
2022-11-24T00:41:51.126Z,8.40
2022-11-24T00:42:51.048Z,8.00
2022-11-24T00:43:51.045Z,6.00
2022-11-24T00:44:51.036Z,5.70
2022-11-24T00:45:51.097Z,7.00
2022-11-24T00:46:51.157Z,5.90
2022-11-24T00:47:51.076Z,6.70
2022-11-24T00:48:50.970Z,8.60
2022-11-24T00:49:50.995Z,7.30
2022-11-24T00:50:50.970Z,7.10
2022-11-24T00:51:50.929Z,7.70
2022-11-24T00:52:50.929Z,8.00
2022-11-24T00:53:50.909Z,11.50
2022-11-24T00:54:50.929Z,7.20
2022-11-24T00:55:50.884Z,5.80
2022-11-24T00:56:50.949Z,6.40
2022-11-24T00:57:50.854Z,5.80
2022-11-24T00:58:50.846Z,7.50
2022-11-24T00:59:50.835Z,9.00
2022-11-24T01:00:50.840Z,7.00
2022-11-24T01:01:50.868Z,8.10
2022-11-24T01:02:50.816Z,6.70
2022-11-24T01:03:50.806Z,7.60
2022-11-24T01:04:50.784Z,6.60
2022-11-24T01:05:50.759Z,9.40
2022-11-24T01:06:50.740Z,5.70
2022-11-24T01:07:50.747Z,6.00
2022-11-24T01:08:50.730Z,9.10
2022-11-24T01:09:50.700Z,8.10
2022-11-24T01:10:50.728Z,8.70
2022-11-24T01:11:50.694Z,8.50
2022-11-24T01:12:50.659Z,8.30
2022-11-24T01:13:50.682Z,6.90
2022-11-24T01:14:50.641Z,8.00
2022-11-24T01:15:50.697Z,8.90
2022-11-24T01:16:50.639Z,8.90
2022-11-24T01:17:50.597Z,8.40
2022-11-24T01:18:50.574Z,7.90
2022-11-24T01:19:50.580Z,11.70
2022-11-24T01:20:50.577Z,7.50
2022-11-24T01:21:50.598Z,10.20
2022-11-24T01:22:50.546Z,7.70
2022-11-24T01:23:50.516Z,6.70
2022-11-24T01:24:50.500Z,11.10
2022-11-24T01:25:50.527Z,9.60
2022-11-24T01:26:50.505Z,9.20
2022-11-24T01:27:50.464Z,10.60
2022-11-24T01:28:50.465Z,10.60
2022-11-24T01:29:50.429Z,8.90
2022-11-24T01:30:50.438Z,7.90
2022-11-24T01:31:50.466Z,7.90
2022-11-24T01:32:50.439Z,14.60
2022-11-24T01:33:50.390Z,7.50
2022-11-24T01:34:50.399Z,7.30
2022-11-24T01:35:50.362Z,10.40
2022-11-24T01:36:50.350Z,9.10
2022-11-24T01:37:50.355Z,10.70
2022-11-24T01:38:50.344Z,11.70
2022-11-24T01:39:50.311Z,9.10
2022-11-24T01:40:50.288Z,9.30
2022-11-24T01:41:50.299Z,10.40
2022-11-24T01:42:50.297Z,8.50
2022-11-24T01:43:50.252Z,7.60
2022-11-24T01:44:50.240Z,6.40
2022-11-24T01:45:50.265Z,9.50
2022-11-24T01:46:50.221Z,9.80
2022-11-24T01:47:50.220Z,9.80
2022-11-24T01:48:50.213Z,8.30
2022-11-24T01:49:50.179Z,11.50
2022-11-24T01:50:50.173Z,7.90
2022-11-24T01:51:50.187Z,7.90
2022-11-24T01:52:50.137Z,9.40
2022-11-24T01:53:50.170Z,7.80
2022-11-24T01:54:50.113Z,5.90
2022-11-24T01:55:50.099Z,8.50
2022-11-24T01:56:50.095Z,8.40
2022-11-24T01:57:50.136Z,8.60
2022-11-24T01:58:50.075Z,13.70
2022-11-24T01:59:50.041Z,9.20
2022-11-24T02:00:50.033Z,9.60
2022-11-24T02:01:50.046Z,12.30
2022-11-24T02:02:50.200Z,7.00
2022-11-24T02:03:50.028Z,6.80
2022-11-24T02:04:49.980Z,7.00
2022-11-24T02:05:49.958Z,7.50
2022-11-24T02:06:50.033Z,7.60
2022-11-24T02:07:50.009Z,7.70
2022-11-24T02:08:49.955Z,9.00
2022-11-24T02:09:49.907Z,5.20
2022-11-24T02:10:49.895Z,11.00
2022-11-24T02:11:49.888Z,9.40
2022-11-24T02:12:49.869Z,9.30
2022-11-24T02:13:49.892Z,6.00
2022-11-24T02:14:49.862Z,8.40
2022-11-24T02:15:49.881Z,7.20
2022-11-24T02:16:49.832Z,8.00
2022-11-24T02:17:49.802Z,7.60
2022-11-24T02:18:49.803Z,7.50
2022-11-24T02:19:49.799Z,6.70
2022-11-24T02:20:49.761Z,14.20
2022-11-24T02:21:49.756Z,7.40
2022-11-24T02:22:49.739Z,8.10
2022-11-24T02:23:49.728Z,10.50
2022-11-24T02:24:49.748Z,13.20
2022-11-24T02:25:49.701Z,11.80
2022-11-24T02:26:49.718Z,11.60
2022-11-24T02:27:53.923Z,13.60
2022-11-24T02:28:49.664Z,14.40
2022-11-24T02:29:49.654Z,16.30
2022-11-24T02:30:49.678Z,13.30
2022-11-24T02:31:49.617Z,13.70
2022-11-24T02:32:49.636Z,12.50
2022-11-24T02:33:49.603Z,15.70
2022-11-24T02:34:49.606Z,15.60
2022-11-24T02:35:49.581Z,15.40
2022-11-24T02:36:49.563Z,13.90
2022-11-24T02:37:49.537Z,13.70
2022-11-24T02:38:49.555Z,14.80
2022-11-24T02:39:49.511Z,13.50
2022-11-24T02:40:49.518Z,16.00
2022-11-24T02:41:49.571Z,14.00
2022-11-24T02:42:49.473Z,14.20
2022-11-24T02:43:49.481Z,12.10
2022-11-24T02:44:49.475Z,13.30
2022-11-24T02:45:49.443Z,12.40
2022-11-24T02:46:49.428Z,19.00
2022-11-24T02:47:49.413Z,13.70
2022-11-24T02:48:49.442Z,16.20
2022-11-24T02:49:49.376Z,14.20
2022-11-24T02:50:49.372Z,14.20
2022-11-24T02:51:49.382Z,11.50
2022-11-24T02:52:49.341Z,10.80
2022-11-24T02:53:49.328Z,11.60
2022-11-24T02:54:49.340Z,11.50
2022-11-24T02:55:49.300Z,12.50
2022-11-24T02:56:49.321Z,12.20
2022-11-24T02:57:49.278Z,11.90
2022-11-24T02:58:49.303Z,12.30
2022-11-24T02:59:49.247Z,7.90
2022-11-24T03:00:49.240Z,8.40
2022-11-24T03:01:49.314Z,12.30
2022-11-24T03:02:49.302Z,13.40
2022-11-24T03:03:49.201Z,16.00
2022-11-24T03:04:49.204Z,11.60
2022-11-24T03:05:49.176Z,13.00
2022-11-24T03:06:49.222Z,11.00
2022-11-24T03:07:49.238Z,10.70
2022-11-24T03:08:49.147Z,9.90
2022-11-24T03:09:49.141Z,8.10
2022-11-24T03:10:49.136Z,11.50
2022-11-24T03:11:49.149Z,12.90
2022-11-24T03:12:49.081Z,8.10
2022-11-24T03:13:49.062Z,11.80
2022-11-24T03:14:49.052Z,9.80
2022-11-24T03:15:49.175Z,10.60
2022-11-24T03:16:49.072Z,10.60
2022-11-24T03:17:49.013Z,13.20
2022-11-24T03:18:49.006Z,13.30
2022-11-24T03:19:48.989Z,15.40
2022-11-24T03:20:49.003Z,9.80
2022-11-24T03:21:48.965Z,14.60
2022-11-24T03:22:48.976Z,13.70
2022-11-24T03:23:48.969Z,15.60
2022-11-24T03:24:48.922Z,12.50
2022-11-24T03:25:48.913Z,10.50
2022-11-24T03:26:48.902Z,11.00
2022-11-24T03:27:48.883Z,14.80
2022-11-24T03:28:48.897Z,12.60
2022-11-24T03:29:48.851Z,11.50
2022-11-24T03:30:48.963Z,13.10
2022-11-24T03:31:48.830Z,10.30
2022-11-24T03:32:48.819Z,9.60
2022-11-24T03:33:48.825Z,13.10
2022-11-24T03:34:48.795Z,7.80
2022-11-24T03:35:48.801Z,8.40
2022-11-24T03:36:48.795Z,9.70
2022-11-24T03:37:48.754Z,10.80
2022-11-24T03:38:48.744Z,9.30
2022-11-24T03:39:48.723Z,10.80
2022-11-24T03:40:48.734Z,8.70
2022-11-24T03:41:48.704Z,8.70
2022-11-24T03:42:48.704Z,13.80
2022-11-24T03:43:48.669Z,13.10
2022-11-24T03:44:48.711Z,13.40
2022-11-24T03:45:48.642Z,9.60
2022-11-24T03:46:48.729Z,8.40
2022-11-24T03:47:48.614Z,14.30
2022-11-24T03:48:48.613Z,11.80
2022-11-24T03:49:48.616Z,9.70
2022-11-24T03:50:48.589Z,9.60
2022-11-24T03:51:48.596Z,10.00
2022-11-24T03:52:48.574Z,11.30
2022-11-24T03:53:48.551Z,11.90
2022-11-24T03:54:48.590Z,15.80
2022-11-24T03:55:48.508Z,13.60
2022-11-24T03:56:48.515Z,12.90
2022-11-24T03:57:48.508Z,17.10
2022-11-24T03:58:48.480Z,14.50
2022-11-24T03:59:48.498Z,14.50
2022-11-24T04:00:48.453Z,14.00
2022-11-24T04:01:48.595Z,14.20
2022-11-24T04:02:48.548Z,14.70
2022-11-24T04:03:48.413Z,16.10
2022-11-24T04:04:49.848Z,19.50
2022-11-24T04:05:48.396Z,15.80
2022-11-24T04:06:48.367Z,16.20
2022-11-24T04:07:48.412Z,11.60
2022-11-24T04:08:48.373Z,13.30
2022-11-24T04:09:48.333Z,10.40
2022-11-24T04:10:48.352Z,16.40
2022-11-24T04:11:48.298Z,23.20
2022-11-24T04:12:48.288Z,21.30
2022-11-24T04:13:48.299Z,21.60
2022-11-24T04:14:48.311Z,23.80
2022-11-24T04:15:48.362Z,22.30
2022-11-24T04:16:48.244Z,16.30
2022-11-24T04:17:48.219Z,12.80
2022-11-24T04:18:48.211Z,11.10
2022-11-24T04:19:48.233Z,17.60
2022-11-24T04:20:48.185Z,14.30
2022-11-24T04:21:48.212Z,21.00
2022-11-24T04:22:48.165Z,16.40
2022-11-24T04:23:48.148Z,16.40
2022-11-24T04:24:48.168Z,19.40
2022-11-24T04:25:48.108Z,16.80
2022-11-24T04:26:48.135Z,16.70
2022-11-24T04:27:48.091Z,17.70
2022-11-24T04:28:48.104Z,15.40
2022-11-24T04:29:48.064Z,16.60
2022-11-24T04:30:48.073Z,10.50
2022-11-24T04:31:48.194Z,16.20
2022-11-24T04:32:48.059Z,14.40
2022-11-24T04:33:48.011Z,26.50
2022-11-24T04:34:48.028Z,17.00
2022-11-24T04:35:47.983Z,15.50
2022-11-24T04:36:47.973Z,12.60
2022-11-24T04:37:47.956Z,17.00
2022-11-24T04:39:23.809Z,18.20
2022-11-24T04:39:47.936Z,15.90
2022-11-24T04:40:47.926Z,16.20
2022-11-24T04:41:47.905Z,14.60
2022-11-24T04:42:47.910Z,17.90
2022-11-24T04:43:47.881Z,14.70
2022-11-24T04:44:47.871Z,16.40
2022-11-24T04:45:47.879Z,18.30
2022-11-24T04:46:47.887Z,19.60
2022-11-24T04:47:47.864Z,19.40
2022-11-24T04:48:47.822Z,19.40
2022-11-24T04:49:47.828Z,16.90
2022-11-24T04:50:47.814Z,9.60
2022-11-24T04:51:47.930Z,15.20
2022-11-24T04:52:47.774Z,17.50
2022-11-24T04:53:47.749Z,15.70
2022-11-24T04:54:47.737Z,18.50
2022-11-24T04:55:47.721Z,14.30
2022-11-24T04:56:47.738Z,11.80
2022-11-24T04:57:47.695Z,9.70
2022-11-24T04:58:47.686Z,12.10
2022-11-24T04:59:47.660Z,14.40
2022-11-24T05:00:47.683Z,16.00
2022-11-24T05:01:47.841Z,15.80
2022-11-24T05:02:47.658Z,22.60
2022-11-24T05:03:47.677Z,26.10
2022-11-24T05:04:47.646Z,43.70
2022-11-24T05:05:47.605Z,38.70
2022-11-24T05:06:47.577Z,72.30
2022-11-24T05:07:47.619Z,42.90
2022-11-24T05:08:47.550Z,34.10
2022-11-24T05:09:58.991Z,27.40
2022-11-24T05:10:47.540Z,13.70
2022-11-24T05:11:47.515Z,10.00
2022-11-24T05:12:51.290Z,8.30
2022-11-24T05:13:47.492Z,13.00
2022-11-24T05:14:47.500Z,17.10
2022-11-24T05:15:47.554Z,12.00
2022-11-24T05:16:47.451Z,8.90
2022-11-24T05:17:47.431Z,7.70
2022-11-24T05:18:47.443Z,8.90
2022-11-24T05:19:47.423Z,8.80
2022-11-24T05:20:47.422Z,6.60
2022-11-24T05:21:47.373Z,8.80
2022-11-24T05:22:47.387Z,12.80
2022-11-24T05:23:47.351Z,15.00
2022-11-24T05:24:47.388Z,8.00
2022-11-24T05:25:47.908Z,11.00
2022-11-24T05:26:47.433Z,10.20
2022-11-24T05:27:47.319Z,12.20
2022-11-24T05:28:47.301Z,5.60
2022-11-24T05:29:47.271Z,5.70
2022-11-24T05:30:47.267Z,13.60
2022-11-24T05:31:47.348Z,8.60
2022-11-24T05:32:47.260Z,13.70
2022-11-24T05:33:47.226Z,16.40
2022-11-24T05:34:47.238Z,24.60
2022-11-24T05:35:47.196Z,15.70
2022-11-24T05:36:47.216Z,17.70
2022-11-24T05:37:47.201Z,11.10
2022-11-24T05:38:47.183Z,14.70
2022-11-24T05:39:47.151Z,19.60
2022-11-24T05:40:47.131Z,23.90
2022-11-24T05:41:47.210Z,14.50
2022-11-24T05:42:48.347Z,17.90
2022-11-24T05:43:47.095Z,9.00
2022-11-24T05:44:47.094Z,12.20
2022-11-24T05:45:47.072Z,11.90
2022-11-24T05:46:47.104Z,9.50
2022-11-24T05:47:47.085Z,8.80
2022-11-24T05:48:47.013Z,7.90
2022-11-24T05:49:47.019Z,6.80
2022-11-24T05:50:46.999Z,4.50
2022-11-24T05:51:47.037Z,6.10
2022-11-24T05:52:46.996Z,12.80
2022-11-24T05:53:46.976Z,13.40
2022-11-24T05:54:46.973Z,9.40
2022-11-24T05:55:46.939Z,5.40
2022-11-24T05:56:46.917Z,4.90
2022-11-24T05:57:46.914Z,6.80
2022-11-24T05:58:46.887Z,6.10
2022-11-24T05:59:46.924Z,10.10
2022-11-24T06:00:46.857Z,9.10
2022-11-24T06:01:47.009Z,5.20
2022-11-24T06:02:46.967Z,4.50
2022-11-24T06:03:46.843Z,5.80
2022-11-24T06:04:46.870Z,5.30
2022-11-24T06:05:46.810Z,5.60
2022-11-24T06:06:46.783Z,6.00
2022-11-24T06:07:46.831Z,5.00
2022-11-24T06:08:46.754Z,4.70
2022-11-24T06:09:46.781Z,6.10
2022-11-24T06:10:46.755Z,6.20
2022-11-24T06:11:46.729Z,5.90
2022-11-24T06:12:46.704Z,5.80
2022-11-24T06:13:46.760Z,5.10
2022-11-24T06:14:46.711Z,4.90
2022-11-24T06:15:46.680Z,4.40
2022-11-24T06:16:46.725Z,5.90
2022-11-24T06:17:46.645Z,4.70
2022-11-24T06:18:46.639Z,5.30
2022-11-24T06:19:46.614Z,5.40
2022-11-24T06:21:03.086Z,4.70
2022-11-24T06:21:46.623Z,4.80
2022-11-24T06:22:46.589Z,5.20
2022-11-24T06:23:46.570Z,5.20
2022-11-24T06:24:46.556Z,5.00
2022-11-24T06:25:51.368Z,5.40
2022-11-24T06:26:46.525Z,4.40
2022-11-24T06:27:46.568Z,4.80
2022-11-24T06:28:46.492Z,5.30
2022-11-24T06:29:46.491Z,4.90
2022-11-24T06:30:46.470Z,4.40
2022-11-24T06:31:46.521Z,5.00
2022-11-24T06:32:49.624Z,5.10
2022-11-24T06:33:46.441Z,5.20
2022-11-24T06:34:46.422Z,6.00
2022-11-24T06:35:46.414Z,5.60
2022-11-24T06:36:46.413Z,4.70
2022-11-24T06:37:46.422Z,5.10
2022-11-24T06:38:46.390Z,6.10
2022-11-24T06:39:46.355Z,6.10
2022-11-24T06:40:46.328Z,7.00
2022-11-24T06:41:46.362Z,5.40
2022-11-24T06:42:46.343Z,5.60
2022-11-24T06:43:46.306Z,6.50
2022-11-24T06:44:46.283Z,5.40
2022-11-24T06:45:46.423Z,4.60
2022-11-24T06:46:46.253Z,5.30
2022-11-24T06:47:46.278Z,5.80
2022-11-24T06:48:46.228Z,6.40
2022-11-24T06:49:46.230Z,5.60
2022-11-24T06:50:46.200Z,5.30
2022-11-24T06:51:46.208Z,7.40
2022-11-24T06:52:46.749Z,5.70
2022-11-24T06:53:46.169Z,6.50
2022-11-24T06:54:46.177Z,6.20
2022-11-24T06:55:46.173Z,5.60
2022-11-24T06:56:46.119Z,6.60
2022-11-24T06:57:46.157Z,4.60
2022-11-24T06:58:46.124Z,4.60
2022-11-24T06:59:46.126Z,5.60
2022-11-24T07:00:46.151Z,6.00
2022-11-24T07:01:46.072Z,5.30
2022-11-24T07:02:46.393Z,5.50
2022-11-24T07:03:46.039Z,4.80
2022-11-24T07:04:46.046Z,5.70
2022-11-24T07:05:46.012Z,7.40
2022-11-24T07:06:46.008Z,6.10
2022-11-24T07:07:46.033Z,4.60
2022-11-24T07:08:45.964Z,6.40
2022-11-24T07:09:45.994Z,6.60
2022-11-24T07:10:45.933Z,8.40
2022-11-24T07:11:45.948Z,5.70
2022-11-24T07:12:45.909Z,6.90
2022-11-24T07:13:45.916Z,7.40
2022-11-24T07:14:45.925Z,5.80
2022-11-24T07:15:45.878Z,8.70
2022-11-24T07:16:45.924Z,5.40
2022-11-24T07:17:45.884Z,5.50
2022-11-24T07:18:45.834Z,5.40
2022-11-24T07:19:45.824Z,6.10
2022-11-24T07:20:45.848Z,5.50
2022-11-24T07:21:45.803Z,9.00
2022-11-24T07:22:45.782Z,6.80
2022-11-24T07:23:45.770Z,7.40
2022-11-24T07:24:45.751Z,5.20
2022-11-24T07:25:45.775Z,5.10
2022-11-24T07:26:45.735Z,5.90
2022-11-24T07:27:45.858Z,8.40
2022-11-24T07:28:45.712Z,6.10
2022-11-24T07:29:45.696Z,7.30
2022-11-24T07:30:45.697Z,6.00
2022-11-24T07:31:45.729Z,5.90
2022-11-24T07:32:45.644Z,6.00
2022-11-24T07:33:45.655Z,6.70
2022-11-24T07:34:45.618Z,5.70
2022-11-24T07:35:45.644Z,6.40
2022-11-24T07:36:45.632Z,6.50
2022-11-24T07:37:45.586Z,7.40
2022-11-24T07:38:45.562Z,7.10
2022-11-24T07:39:45.589Z,6.50
2022-11-24T07:40:45.566Z,4.50
2022-11-24T07:41:45.535Z,7.20
2022-11-24T07:42:45.541Z,5.00
2022-11-24T07:43:45.555Z,5.70
2022-11-24T07:44:45.521Z,4.80
2022-11-24T07:45:45.535Z,6.40
2022-11-24T07:46:45.489Z,5.30
2022-11-24T07:47:45.464Z,5.50
2022-11-24T07:48:45.444Z,7.60
2022-11-24T07:49:45.466Z,6.30
2022-11-24T07:50:45.411Z,4.70
2022-11-24T07:51:45.401Z,5.30
2022-11-24T07:52:45.384Z,7.30
2022-11-24T07:53:45.412Z,5.00
2022-11-24T07:54:45.377Z,6.10
2022-11-24T07:55:45.379Z,4.80
2022-11-24T07:56:45.334Z,5.70
2022-11-24T07:57:45.333Z,5.70
2022-11-24T07:58:51.212Z,5.40
2022-11-24T07:59:45.336Z,7.80
2022-11-24T08:00:45.280Z,5.90
2022-11-24T08:01:45.375Z,6.70
2022-11-24T08:02:45.298Z,9.30
2022-11-24T08:03:45.345Z,7.10
2022-11-24T08:04:45.271Z,7.30
2022-11-24T08:06:08.225Z,4.70
2022-11-24T08:06:47.451Z,6.20
2022-11-24T08:07:45.307Z,6.60
2022-11-24T08:08:45.171Z,5.30
2022-11-24T08:09:45.172Z,6.30
2022-11-24T08:10:45.146Z,8.90
2022-11-24T08:11:45.190Z,5.90
2022-11-24T08:12:45.122Z,6.70
2022-11-24T08:13:45.110Z,6.10
2022-11-24T08:14:45.092Z,7.00
2022-11-24T08:15:45.087Z,7.20
2022-11-24T08:16:45.160Z,6.60
2022-11-24T08:17:45.061Z,6.00
2022-11-24T08:18:45.030Z,8.60
2022-11-24T08:19:45.076Z,7.30
2022-11-24T08:20:45.011Z,5.20
2022-11-24T08:21:45.014Z,5.90
2022-11-24T08:22:45.017Z,6.20
2022-11-24T08:23:44.992Z,5.10
2022-11-24T08:24:45.013Z,5.30
2022-11-24T08:25:44.974Z,7.50
2022-11-24T08:26:44.978Z,5.00
2022-11-24T08:27:44.934Z,7.30
2022-11-24T08:28:44.905Z,10.10
2022-11-24T08:29:44.907Z,10.00
2022-11-24T08:30:44.911Z,7.00
2022-11-24T08:31:44.934Z,5.70
2022-11-24T08:32:44.886Z,7.10
2022-11-24T08:33:44.859Z,7.50
2022-11-24T08:34:44.835Z,6.90
2022-11-24T08:35:44.834Z,7.50
2022-11-24T08:36:44.833Z,6.00
2022-11-24T08:37:44.785Z,7.30
2022-11-24T08:38:44.778Z,5.00
2022-11-24T08:39:44.814Z,5.10
2022-11-24T08:40:44.758Z,5.10
2022-11-24T08:41:44.746Z,6.00
2022-11-24T08:42:44.726Z,5.40
2022-11-24T08:43:44.740Z,4.30
2022-11-24T08:44:44.723Z,4.80
2022-11-24T08:45:44.777Z,4.60
2022-11-24T08:46:44.738Z,4.90
2022-11-24T08:47:44.706Z,6.30
2022-11-24T08:48:44.642Z,4.60
2022-11-24T08:49:44.635Z,6.70
2022-11-24T08:50:44.666Z,6.10
2022-11-24T08:51:44.604Z,6.40
2022-11-24T08:52:44.617Z,4.60
2022-11-24T08:53:44.609Z,5.40
2022-11-24T08:54:44.577Z,5.60
2022-11-24T08:55:44.576Z,6.70
2022-11-24T08:56:44.596Z,12.00
2022-11-24T08:57:44.563Z,5.40
2022-11-24T08:58:44.531Z,5.10
2022-11-24T08:59:44.514Z,6.90
2022-11-24T09:00:44.485Z,5.20
2022-11-24T09:01:44.543Z,4.00
2022-11-24T09:02:44.461Z,5.50
2022-11-24T09:03:50.143Z,6.90
2022-11-24T09:07:27.688Z,4.70
2022-11-24T09:08:03.439Z,5.90
2022-11-24T09:09:03.495Z,8.90
2022-11-24T09:10:03.414Z,5.70
2022-11-24T09:11:03.421Z,8.10
2022-11-24T09:12:03.411Z,10.00
2022-11-24T09:13:03.389Z,4.40
2022-11-24T09:14:10.139Z,6.40
2022-11-24T09:15:03.352Z,6.50
2022-11-24T09:16:03.341Z,5.00
2022-11-24T09:17:03.419Z,5.30
2022-11-24T09:18:03.328Z,5.60
2022-11-24T09:19:03.295Z,5.10
2022-11-24T09:20:03.299Z,6.60
2022-11-24T09:21:03.302Z,5.20
2022-11-24T09:22:03.251Z,5.20
2022-11-24T09:23:03.296Z,5.10
2022-11-24T09:24:03.231Z,5.40
2022-11-24T09:25:03.236Z,4.50
2022-11-24T09:26:03.234Z,4.80
2022-11-24T09:27:03.217Z,4.80
2022-11-24T09:28:03.179Z,4.50
2022-11-24T09:29:03.169Z,5.40
2022-11-24T09:30:03.160Z,6.10
2022-11-24T09:31:03.250Z,5.80
2022-11-24T09:32:06.736Z,4.70
2022-11-24T09:33:03.125Z,4.70
2022-11-24T09:34:03.099Z,5.50
2022-11-24T09:35:03.111Z,5.70
2022-11-24T09:36:03.076Z,5.50
2022-11-24T09:37:03.061Z,5.50
2022-11-24T09:38:03.067Z,10.70
2022-11-24T09:39:03.032Z,9.60
2022-11-24T09:40:03.055Z,7.90
2022-11-24T09:41:03.008Z,5.10
2022-11-24T09:42:02.991Z,4.90
2022-11-24T09:43:03.007Z,4.90
2022-11-24T09:44:02.958Z,4.90
2022-11-24T09:45:03.019Z,5.00
2022-11-24T09:46:05.923Z,4.90
2022-11-24T09:47:02.960Z,4.40
2022-11-24T09:48:02.929Z,4.40
2022-11-24T09:49:02.903Z,3.50
2022-11-24T09:50:02.881Z,3.80
2022-11-24T09:51:02.879Z,6.50
2022-11-24T09:52:02.881Z,4.00
2022-11-24T09:53:02.845Z,4.00
2022-11-24T09:54:02.832Z,5.00
2022-11-24T09:55:02.817Z,4.40
2022-11-24T09:56:02.819Z,4.90
2022-11-24T09:57:02.792Z,4.60
2022-11-24T09:58:02.809Z,5.20
2022-11-24T09:59:02.805Z,6.30
2022-11-24T10:00:02.751Z,4.90
2022-11-24T10:01:02.815Z,4.30
2022-11-24T10:02:02.836Z,4.80
2022-11-24T10:03:02.726Z,4.80
2022-11-24T10:04:06.345Z,4.90
2022-11-24T10:05:02.770Z,4.90
2022-11-24T10:06:02.674Z,5.30
2022-11-24T10:07:02.696Z,5.00
2022-11-24T10:08:02.674Z,8.10
2022-11-24T10:09:02.638Z,7.10
2022-11-24T10:10:02.637Z,5.60
2022-11-24T10:11:02.686Z,5.00
2022-11-24T10:12:02.612Z,4.80
2022-11-24T10:13:02.589Z,4.90
2022-11-24T10:14:02.563Z,5.00
2022-11-24T10:15:02.593Z,5.20
2022-11-24T10:16:02.574Z,5.30
2022-11-24T10:17:02.559Z,5.20
2022-11-24T10:18:02.515Z,6.30
2022-11-24T10:19:02.504Z,5.30
2022-11-24T10:20:02.526Z,5.40
2022-11-24T10:21:02.474Z,4.30
2022-11-24T10:22:02.457Z,4.20
2022-11-24T10:23:02.490Z,5.80
2022-11-24T10:24:02.455Z,6.30
2022-11-24T10:25:02.435Z,4.10
2022-11-24T10:26:02.416Z,6.30
2022-11-24T10:27:02.391Z,5.00
2022-11-24T10:28:02.419Z,5.60
2022-11-24T10:29:02.365Z,4.90
2022-11-24T10:30:02.391Z,4.70
2022-11-24T10:31:02.404Z,5.80
2022-11-24T10:32:02.343Z,4.80
2022-11-24T10:33:02.335Z,4.40
2022-11-24T10:34:02.363Z,4.30
2022-11-24T10:35:02.317Z,4.20
2022-11-24T10:36:02.456Z,4.20
2022-11-24T10:37:02.288Z,4.50
2022-11-24T10:38:02.275Z,4.80
2022-11-24T10:39:02.229Z,3.80
2022-11-24T10:40:02.233Z,5.50
2022-11-24T10:41:02.242Z,5.30
2022-11-24T10:42:02.231Z,6.10
2022-11-24T10:43:02.184Z,4.60
2022-11-24T10:44:02.185Z,5.50
2022-11-24T10:45:02.149Z,4.00
2022-11-24T10:46:02.181Z,6.60
2022-11-24T10:47:02.173Z,5.30
2022-11-24T10:48:02.118Z,4.60
2022-11-24T10:49:02.146Z,5.30
2022-11-24T10:50:02.101Z,5.40
2022-11-24T10:51:02.065Z,4.80
2022-11-24T10:52:02.101Z,6.60
2022-11-24T10:53:02.126Z,6.10
2022-11-24T10:54:02.049Z,4.80
2022-11-24T10:55:02.030Z,6.30
2022-11-24T10:56:02.017Z,5.70
2022-11-24T10:57:02.021Z,4.00
2022-11-24T10:58:01.992Z,4.20
2022-11-24T10:59:01.960Z,4.90
2022-11-24T11:00:01.991Z,6.40
2022-11-24T11:01:02.090Z,5.10
2022-11-24T11:02:02.060Z,7.20
2022-11-24T11:03:01.963Z,4.30
2022-11-24T11:04:01.912Z,4.00
2022-11-24T11:05:01.912Z,5.60
2022-11-24T11:06:01.897Z,5.10
2022-11-24T11:07:01.900Z,5.10
2022-11-24T11:08:05.471Z,7.00
2022-11-24T11:09:01.838Z,5.30
2022-11-24T11:10:01.836Z,6.60
2022-11-24T11:11:01.835Z,6.00
2022-11-24T11:12:14.917Z,5.50
2022-11-24T11:13:01.781Z,4.60
2022-11-24T11:14:04.351Z,5.10
2022-11-24T11:15:01.756Z,5.50
2022-11-24T11:16:01.809Z,6.00
2022-11-24T11:17:01.732Z,4.90
2022-11-24T11:18:01.744Z,4.70
2022-11-24T11:19:01.726Z,6.80
2022-11-24T11:20:02.691Z,5.40
2022-11-24T11:21:01.677Z,6.00
2022-11-24T11:22:01.666Z,5.60
2022-11-24T11:23:01.649Z,5.10
2022-11-24T11:24:01.665Z,4.80
2022-11-24T11:25:01.630Z,3.50
2022-11-24T11:26:01.627Z,4.50
2022-11-24T11:27:01.616Z,4.10
2022-11-24T11:28:06.979Z,4.10
2022-11-24T11:31:19.112Z,5.00
2022-11-24T11:34:03.589Z,4.40
2022-11-24T11:35:01.486Z,5.10
2022-11-24T11:36:01.493Z,5.20
2022-11-24T11:37:01.455Z,4.40
2022-11-24T11:38:01.487Z,4.80
2022-11-24T11:39:01.429Z,5.30
2022-11-24T11:40:01.431Z,4.90
2022-11-24T11:41:01.399Z,6.10
2022-11-24T11:42:01.419Z,6.00
2022-11-24T11:43:03.076Z,7.00
2022-11-24T11:44:01.382Z,5.90
2022-11-24T11:45:01.386Z,6.20
2022-11-24T11:46:01.525Z,7.20
2022-11-24T11:47:01.383Z,6.40
2022-11-24T11:48:01.314Z,4.70
2022-11-24T11:49:01.324Z,4.40
2022-11-24T11:50:01.290Z,5.80
2022-11-24T11:51:22.997Z,6.20
2022-11-24T11:52:01.368Z,5.30
2022-11-24T11:53:01.264Z,5.70
2022-11-24T11:54:01.307Z,7.80
2022-11-24T11:55:01.226Z,5.20
2022-11-24T11:56:01.211Z,5.20
2022-11-24T11:57:01.184Z,6.10
2022-11-24T11:58:01.181Z,5.20
2022-11-24T11:59:01.199Z,4.70
2022-11-24T12:00:01.151Z,5.50
2022-11-24T12:01:01.145Z,5.10
2022-11-24T12:02:01.122Z,5.30
2022-11-24T12:03:01.221Z,5.70
2022-11-24T12:04:01.321Z,7.80
2022-11-24T12:05:01.078Z,4.70
2022-11-24T12:06:01.074Z,5.40
2022-11-24T12:07:01.096Z,5.60
2022-11-24T12:08:05.043Z,6.70
2022-11-24T12:09:19.906Z,6.60
2022-11-24T12:10:01.017Z,7.10
2022-11-24T12:11:00.997Z,6.00
2022-11-24T12:12:01.045Z,8.70
2022-11-24T12:13:00.975Z,8.50
2022-11-24T12:14:00.963Z,7.70
2022-11-24T12:15:04.552Z,7.40
2022-11-24T12:16:00.966Z,6.50
2022-11-24T12:17:00.941Z,7.70
2022-11-24T12:18:00.961Z,4.40
2022-11-24T12:19:00.904Z,7.50
2022-11-24T12:20:00.887Z,10.40
2022-11-24T12:21:00.863Z,7.30
2022-11-24T12:22:00.865Z,10.00
2022-11-24T12:23:00.853Z,10.70
2022-11-24T12:24:00.821Z,6.80
2022-11-24T12:25:00.839Z,11.50
2022-11-24T12:26:00.790Z,7.40
2022-11-24T12:27:00.815Z,7.00
2022-11-24T12:28:00.789Z,9.60
2022-11-24T12:29:00.749Z,6.00
2022-11-24T12:30:00.753Z,7.00
2022-11-24T12:31:00.759Z,5.60
2022-11-24T12:32:00.747Z,6.50
2022-11-24T12:33:00.694Z,5.60
2022-11-24T12:34:01.587Z,7.40
2022-11-24T12:35:00.681Z,15.80
2022-11-24T12:36:00.694Z,11.60
2022-11-24T12:37:00.650Z,8.60
2022-11-24T12:38:00.673Z,8.10
2022-11-24T12:39:00.618Z,9.30
2022-11-24T12:40:00.618Z,8.90
2022-11-24T12:42:00.640Z,8.60
2022-11-24T12:43:00.579Z,8.30
2022-11-24T12:44:00.566Z,7.20
2022-11-24T12:45:00.543Z,6.90
2022-11-24T12:46:00.565Z,6.50
2022-11-24T12:47:00.631Z,5.20
2022-11-24T12:48:00.524Z,5.90
2022-11-24T12:49:00.536Z,4.20
2022-11-24T12:50:00.488Z,6.60
2022-11-24T12:51:00.468Z,15.00
2022-11-24T12:52:00.514Z,5.50
2022-11-24T12:53:00.455Z,5.10
2022-11-24T12:54:00.436Z,6.10
2022-11-24T12:55:00.414Z,6.60
2022-11-24T12:56:00.437Z,5.80
2022-11-24T12:57:00.382Z,6.50
2022-11-24T12:58:00.384Z,4.70
2022-11-24T12:59:00.361Z,6.00
2022-11-24T13:00:00.368Z,8.20
2022-11-24T13:01:00.349Z,8.30
2022-11-24T13:02:00.469Z,9.30
2022-11-24T13:03:00.515Z,8.60
2022-11-24T13:04:00.295Z,11.70
2022-11-24T13:05:00.268Z,7.00
2022-11-24T13:06:00.298Z,7.60
2022-11-24T13:07:00.290Z,6.70
2022-11-24T13:08:00.266Z,9.20
2022-11-24T13:09:00.217Z,6.40
2022-11-24T13:10:00.221Z,9.20
2022-11-24T13:11:00.196Z,18.60
2022-11-24T13:12:03.577Z,17.80
2022-11-24T13:13:00.206Z,12.80
2022-11-24T13:14:00.202Z,16.50
2022-11-24T13:15:00.180Z,6.40
2022-11-24T13:18:11.878Z,4.60
2022-11-24T13:19:00.180Z,5.30
2022-11-24T13:20:00.092Z,5.30
2022-11-24T13:21:00.091Z,5.90